createdAt,value
2022-08-25T00:00:48.415Z,6.28
2022-08-25T00:03:15.967Z,6.63
2022-08-25T00:05:42.969Z,7.03
2022-08-25T00:08:09.703Z,6.60
2022-08-25T00:10:37.508Z,6.63
2022-08-25T00:13:04.457Z,6.40
2022-08-25T00:15:33.797Z,6.70
2022-08-25T00:18:01.010Z,6.28
2022-08-25T00:20:28.185Z,7.13
2022-08-25T00:22:56.072Z,6.75
2022-08-25T00:25:23.419Z,6.45
2022-08-25T00:27:50.327Z,7.43
2022-08-25T00:30:17.429Z,6.90
2022-08-25T00:32:44.489Z,7.25
2022-08-25T00:35:21.709Z,6.65
2022-08-25T00:37:48.072Z,6.80
2022-08-25T00:40:14.799Z,7.40
2022-08-25T00:42:41.599Z,7.00
2022-08-25T00:45:08.509Z,7.43
2022-08-25T00:47:35.718Z,7.43
2022-08-25T00:50:04.594Z,7.63
2022-08-25T00:52:39.317Z,8.48
2022-08-25T00:55:11.894Z,6.95
2022-08-25T00:57:40.434Z,7.47
2022-08-25T01:00:10.771Z,7.90
2022-08-25T01:02:37.860Z,8.23
2022-08-25T01:05:04.538Z,7.75
2022-08-25T01:07:30.992Z,7.60
2022-08-25T01:09:57.372Z,7.78
2022-08-25T01:12:23.786Z,7.43
2022-08-25T01:14:51.223Z,8.30
2022-08-25T01:17:17.657Z,8.50
2022-08-25T01:19:44.104Z,7.47
2022-08-25T01:22:12.059Z,8.30
2022-08-25T01:24:42.641Z,7.43
2022-08-25T01:27:09.420Z,8.35
2022-08-25T01:29:37.027Z,7.43
2022-08-25T01:32:06.120Z,7.78
2022-08-25T01:34:33.590Z,8.18
2022-08-25T01:37:00.582Z,7.88
2022-08-25T01:39:28.054Z,7.70
2022-08-25T01:42:04.644Z,7.90
2022-08-25T01:44:31.898Z,8.23
2022-08-25T01:46:58.393Z,7.63
2022-08-25T01:49:24.802Z,8.02
2022-08-25T01:51:52.636Z,9.05
2022-08-25T01:54:19.088Z,7.88
2022-08-25T01:56:45.559Z,8.05
2022-08-25T01:59:14.403Z,7.90
2022-08-25T02:01:48.169Z,8.95
2022-08-25T02:04:14.610Z,8.43
2022-08-25T02:06:42.557Z,9.25
2022-08-25T02:09:10.939Z,8.32
2022-08-25T02:11:38.951Z,8.93
2022-08-25T02:14:06.023Z,8.18
2022-08-25T02:16:33.587Z,7.75
2022-08-25T02:19:00.295Z,8.43
2022-08-25T02:21:26.911Z,9.43
2022-08-25T02:23:53.571Z,9.48
2022-08-25T02:26:20.097Z,8.82
2022-08-25T02:28:47.174Z,8.43
2022-08-25T02:31:14.521Z,9.20
2022-08-25T02:33:41.035Z,9.32
2022-08-25T02:36:07.622Z,9.15
2022-08-25T02:38:34.900Z,9.40
2022-08-25T02:41:01.879Z,8.98
2022-08-25T02:43:29.087Z,9.02
2022-08-25T02:45:56.374Z,8.88
2022-08-25T02:48:23.427Z,9.43
2022-08-25T02:50:52.459Z,9.40
2022-08-25T02:53:19.990Z,10.10
2022-08-25T02:55:47.407Z,9.32
2022-08-25T02:58:14.354Z,9.90
2022-08-25T03:00:40.772Z,9.95
2022-08-25T03:03:09.718Z,11.10
2022-08-25T03:05:36.247Z,10.05
2022-08-25T03:08:02.866Z,8.93
2022-08-25T03:10:29.310Z,10.80
2022-08-25T03:12:55.645Z,10.02
2022-08-25T03:15:22.042Z,9.43
2022-08-25T03:17:51.897Z,11.25
2022-08-25T03:20:18.645Z,9.93
2022-08-25T03:22:45.018Z,10.50
2022-08-25T03:25:30.235Z,10.20
2022-08-25T03:27:56.778Z,11.48
2022-08-25T03:30:23.422Z,9.95
2022-08-25T03:32:50.022Z,12.13
2022-08-25T03:35:16.430Z,10.57
2022-08-25T03:37:42.832Z,11.35
2022-08-25T03:40:15.298Z,10.88
2022-08-25T03:42:46.643Z,10.73
2022-08-25T03:45:13.637Z,12.27
2022-08-25T03:47:40.355Z,11.93
2022-08-25T03:50:08.641Z,10.70
2022-08-25T03:52:37.916Z,11.35
2022-08-25T03:55:09.232Z,11.88
2022-08-25T03:57:35.885Z,11.85
2022-08-25T04:00:03.359Z,12.35
2022-08-25T04:02:38.292Z,11.27
2022-08-25T04:05:05.001Z,10.02
2022-08-25T04:07:31.743Z,12.57
2022-08-25T04:09:58.398Z,12.02
2022-08-25T04:12:25.004Z,11.55
2022-08-25T04:14:51.825Z,11.43
2022-08-25T04:17:18.454Z,11.40
2022-08-25T04:19:44.890Z,12.25
2022-08-25T04:22:11.257Z,11.18
2022-08-25T04:24:39.769Z,12.80
2022-08-25T04:27:06.181Z,14.05
2022-08-25T04:29:33.587Z,11.30
2022-08-25T04:32:00.059Z,12.82
2022-08-25T04:34:30.186Z,12.48
2022-08-25T04:36:58.031Z,12.15
2022-08-25T04:39:24.489Z,11.18
2022-08-25T04:41:51.393Z,11.45
2022-08-25T04:44:17.867Z,13.45
2022-08-25T04:46:44.251Z,11.05
2022-08-25T04:49:10.748Z,13.10
2022-08-25T04:51:39.606Z,12.73
2022-08-25T04:54:08.443Z,12.20
2022-08-25T04:56:35.289Z,12.38
2022-08-25T04:59:02.698Z,11.88
2022-08-25T05:01:29.487Z,13.00
2022-08-25T05:03:57.227Z,11.18
2022-08-25T05:06:23.834Z,11.95
2022-08-25T05:08:51.376Z,12.50
2022-08-25T05:11:18.958Z,10.60
2022-08-25T05:13:51.406Z,11.77
2022-08-25T05:16:19.029Z,11.32
2022-08-25T05:18:45.658Z,14.52
2022-08-25T05:21:16.427Z,14.00
2022-08-25T05:23:43.082Z,13.43
2022-08-25T05:26:20.372Z,12.70
2022-08-25T05:28:47.746Z,12.23
2022-08-25T05:31:15.318Z,12.75
2022-08-25T05:33:42.206Z,14.48
2022-08-25T05:36:10.006Z,14.25
2022-08-25T05:38:37.722Z,13.07
2022-08-25T05:41:05.865Z,14.20
2022-08-25T05:43:32.907Z,13.38
2022-08-25T05:45:59.769Z,13.13
2022-08-25T05:48:26.868Z,14.43
2022-08-25T05:50:58.308Z,13.18
2022-08-25T05:53:25.381Z,14.35
2022-08-25T05:55:53.139Z,15.75
2022-08-25T05:58:20.084Z,14.68
2022-08-25T06:00:47.089Z,16.13
2022-08-25T06:03:14.099Z,15.07
2022-08-25T06:05:41.206Z,16.15
2022-08-25T06:08:08.004Z,16.90
2022-08-25T06:10:34.850Z,16.25
2022-08-25T06:13:01.855Z,16.63
2022-08-25T06:15:28.306Z,15.45
2022-08-25T06:18:00.729Z,17.25
2022-08-25T06:20:30.447Z,18.20
2022-08-25T06:22:57.591Z,18.75
2022-08-25T06:25:25.218Z,16.67
2022-08-25T06:27:51.836Z,16.90
2022-08-25T06:30:24.420Z,19.23
2022-08-25T06:32:54.962Z,18.83
2022-08-25T06:35:21.513Z,19.38
2022-08-25T06:37:48.125Z,18.65
2022-08-25T06:40:15.273Z,18.63
2022-08-25T06:42:41.930Z,17.73
2022-08-25T06:45:08.821Z,18.63
2022-08-25T06:47:35.395Z,17.55
2022-08-25T06:50:04.719Z,19.52
2022-08-25T06:52:31.609Z,19.35
2022-08-25T06:54:58.075Z,18.67
2022-08-25T06:57:24.587Z,16.17
2022-08-25T06:59:53.373Z,18.92
2022-08-25T07:02:22.185Z,17.85
2022-08-25T07:04:53.627Z,18.58
2022-08-25T07:09:46.840Z,19.13
2022-08-25T07:12:13.506Z,22.17
2022-08-25T07:14:40.108Z,20.45
2022-08-25T07:17:21.467Z,19.85
2022-08-25T07:19:49.862Z,23.98
2022-08-25T07:22:24.320Z,22.45
2022-08-25T07:24:50.792Z,22.60
2022-08-25T07:27:17.225Z,23.33
2022-08-25T07:29:44.199Z,22.63
2022-08-25T07:32:10.917Z,21.30
2022-08-25T07:34:56.248Z,23.33
2022-08-25T07:37:47.594Z,23.25
2022-08-25T07:40:10.930Z,21.73
2022-08-25T07:42:37.862Z,19.02
2022-08-25T07:45:05.468Z,22.05
2022-08-25T07:47:34.147Z,21.33
2022-08-25T07:50:00.662Z,19.75
2022-08-25T07:52:28.206Z,20.15
2022-08-25T07:54:55.211Z,18.50
2022-08-25T07:57:22.452Z,20.30
2022-08-25T07:59:48.865Z,17.63
2022-08-25T08:02:19.360Z,16.67
2022-08-25T08:04:48.858Z,15.52
2022-08-25T08:07:17.215Z,18.40
2022-08-25T08:09:43.910Z,16.98
2022-08-25T08:12:10.412Z,17.83
2022-08-25T08:14:39.545Z,15.32
2022-08-25T08:17:07.994Z,16.27
2022-08-25T08:19:34.938Z,16.73
2022-08-25T08:22:02.334Z,15.45
2022-08-25T08:24:44.325Z,14.20
2022-08-25T08:27:15.987Z,14.05
2022-08-25T08:29:46.092Z,14.40
2022-08-25T08:32:13.634Z,15.13
2022-08-25T08:34:43.416Z,16.35
2022-08-25T08:37:10.847Z,14.85
2022-08-25T08:39:37.991Z,16.13
2022-08-25T08:42:19.530Z,15.02
2022-08-25T08:44:47.912Z,13.13
2022-08-25T08:47:33.688Z,14.13
2022-08-25T08:50:06.473Z,15.00
2022-08-25T08:52:39.151Z,16.02
2022-08-25T08:55:09.494Z,14.40
2022-08-25T08:57:39.361Z,15.05
2022-08-25T09:00:06.650Z,14.10
2022-08-25T09:02:51.525Z,13.30
2022-08-25T09:05:20.076Z,14.27
2022-08-25T09:07:55.032Z,14.63
2022-08-25T09:10:23.117Z,12.93
2022-08-25T09:13:12.760Z,14.82
2022-08-25T09:16:00.563Z,12.50
2022-08-25T09:18:51.083Z,14.05
2022-08-25T09:21:20.078Z,13.13
2022-08-25T09:23:49.618Z,13.82
2022-08-25T09:26:39.771Z,13.20
2022-08-25T09:29:16.763Z,15.68
2022-08-25T09:31:44.809Z,14.07
2022-08-25T09:34:22.692Z,14.15
2022-08-25T09:36:52.826Z,13.50
2022-08-25T09:41:51.244Z,13.57
2022-08-25T09:44:18.391Z,12.35
2022-08-25T09:47:02.261Z,10.85
2022-08-25T09:49:43.206Z,10.23
2022-08-25T09:52:18.694Z,11.45
2022-08-25T09:54:46.926Z,9.40
2022-08-25T09:57:34.498Z,9.85
2022-08-25T10:00:12.642Z,9.18
2022-08-25T10:02:39.573Z,8.07
2022-08-25T10:05:56.135Z,8.05
2022-08-25T10:08:39.765Z,8.48
2022-08-25T10:11:09.025Z,7.93
2022-08-25T10:13:38.231Z,7.57
2022-08-25T10:16:24.509Z,7.70
2022-08-25T10:19:10.240Z,7.35
2022-08-25T10:21:38.260Z,7.45
2022-08-25T10:24:06.074Z,7.65
2022-08-25T10:26:36.926Z,7.25
2022-08-25T10:29:09.951Z,7.20
2022-08-25T10:31:41.316Z,7.95
2022-08-25T10:34:07.880Z,6.63
2022-08-25T10:36:53.603Z,7.25
2022-08-25T10:39:40.474Z,7.28
2022-08-25T10:42:32.126Z,6.18
2022-08-25T10:45:39.139Z,6.97
2022-08-25T10:48:13.092Z,6.60
2022-08-25T10:50:45.384Z,6.13
2022-08-25T10:53:12.707Z,7.07
2022-08-25T10:55:40.490Z,5.75
2022-08-25T10:58:23.191Z,5.82
2022-08-25T11:01:01.347Z,6.43
2022-08-25T11:03:43.826Z,5.10
2022-08-25T11:06:24.942Z,5.70
2022-08-25T11:08:57.486Z,5.30
2022-08-25T11:11:37.579Z,6.15
2022-08-25T11:14:20.042Z,6.15
2022-08-25T11:16:58.675Z,6.20
2022-08-25T11:19:30.864Z,6.68
2022-08-25T11:22:11.638Z,5.50
2022-08-25T11:24:49.133Z,5.70
2022-08-25T11:27:21.700Z,6.00
2022-08-25T11:29:58.972Z,5.68
2022-08-25T11:32:27.476Z,5.85
2022-08-25T11:34:55.295Z,5.57
2022-08-25T11:37:46.992Z,5.72
2022-08-25T11:40:16.576Z,5.82
2022-08-25T11:42:55.742Z,6.20
2022-08-25T11:45:40.755Z,5.40
2022-08-25T11:48:25.945Z,5.35
2022-08-25T11:51:01.416Z,5.53
2022-08-25T11:53:30.248Z,5.80
2022-08-25T11:56:04.243Z,5.40
2022-08-25T11:58:32.704Z,6.20
2022-08-25T12:01:00.858Z,5.25
2022-08-25T12:03:36.469Z,6.35
2022-08-25T12:06:15.328Z,6.43
2022-08-25T12:08:47.727Z,5.45
2022-08-25T12:11:34.124Z,5.65
2022-08-25T12:14:13.730Z,5.68
2022-08-25T12:16:40.241Z,5.95
2022-08-25T12:19:25.572Z,5.28
2022-08-25T12:21:52.945Z,5.63
2022-08-25T12:24:47.203Z,4.82
2022-08-25T12:27:34.260Z,5.40
2022-08-25T12:30:03.133Z,5.55
2022-08-25T12:32:47.622Z,5.57
2022-08-25T12:35:22.897Z,5.18
2022-08-25T12:38:08.924Z,5.88
2022-08-25T12:40:53.243Z,5.10
2022-08-25T12:43:19.846Z,5.75
2022-08-25T12:45:47.707Z,5.38
2022-08-25T12:48:26.252Z,5.47
2022-08-25T12:51:02.680Z,5.30
2022-08-25T12:53:40.060Z,5.75
2022-08-25T12:56:27.672Z,5.60
2022-08-25T12:59:03.655Z,6.05
2022-08-25T13:01:39.233Z,6.13
2022-08-25T13:04:22.456Z,5.88
2022-08-25T13:07:02.946Z,5.20
2022-08-25T13:09:58.653Z,6.15
2022-08-25T13:12:30.861Z,4.68
2022-08-25T13:14:57.582Z,6.15
2022-08-25T13:17:26.837Z,5.72
2022-08-25T13:20:10.306Z,5.40
2022-08-25T13:22:37.110Z,5.30
2022-08-25T13:25:05.418Z,4.82
2022-08-25T13:27:34.032Z,5.78
2022-08-25T13:30:03.874Z,5.15
2022-08-25T13:32:35.303Z,5.10
2022-08-25T13:35:20.114Z,4.60
2022-08-25T13:37:46.918Z,4.65
2022-08-25T13:40:19.668Z,4.72
2022-08-25T13:42:54.357Z,4.65
2022-08-25T13:45:27.819Z,4.45
2022-08-25T13:48:07.622Z,5.15
2022-08-25T13:50:51.696Z,4.85
2022-08-25T13:53:23.897Z,4.10
2022-08-25T13:55:52.233Z,4.35
2022-08-25T13:58:24.298Z,4.95
2022-08-25T14:01:23.695Z,5.07
2022-08-25T14:04:21.264Z,4.80
2022-08-25T14:06:47.715Z,4.95
2022-08-25T14:09:16.491Z,4.78
2022-08-25T14:11:44.645Z,4.45
2022-08-25T14:14:31.309Z,4.50
2022-08-25T14:17:21.534Z,4.72
2022-08-25T14:19:52.732Z,4.82
2022-08-25T14:22:40.077Z,5.30
2022-08-25T14:25:08.644Z,4.72
2022-08-25T14:27:42.090Z,4.68
2022-08-25T14:30:28.909Z,4.55
2022-08-25T14:32:56.223Z,5.05
2022-08-25T14:35:22.642Z,5.15
2022-08-25T14:37:49.310Z,4.70
2022-08-25T14:40:19.878Z,4.57
2022-08-25T14:42:47.545Z,5.38
2022-08-25T14:45:17.299Z,4.85
2022-08-25T14:47:44.399Z,5.03
2022-08-25T14:50:16.991Z,4.93
2022-08-25T14:52:46.807Z,4.45
2022-08-25T14:55:13.359Z,4.10
2022-08-25T14:57:54.098Z,4.93
2022-08-25T15:00:20.915Z,5.07
2022-08-25T15:02:52.924Z,5.15
2022-08-25T15:05:25.685Z,4.53
2022-08-25T15:08:12.249Z,5.18
2022-08-25T15:10:39.285Z,5.13
2022-08-25T15:13:06.308Z,5.00
2022-08-25T15:15:35.024Z,4.60
2022-08-25T15:18:01.497Z,5.22
2022-08-25T15:20:28.135Z,4.63
2022-08-25T15:22:55.652Z,5.93
2022-08-25T15:25:22.816Z,5.03
2022-08-25T15:27:50.884Z,6.35
2022-08-25T15:30:17.305Z,4.97
2022-08-25T15:32:45.226Z,5.22
2022-08-25T15:35:15.479Z,4.43
2022-08-25T15:37:42.193Z,5.10
2022-08-25T15:40:09.367Z,4.80
2022-08-25T15:42:58.103Z,4.72
2022-08-25T15:45:25.302Z,4.97
2022-08-25T15:47:53.949Z,4.90
2022-08-25T15:50:25.756Z,4.78
2022-08-25T15:52:52.585Z,5.10
2022-08-25T15:55:19.937Z,4.90
2022-08-25T15:57:47.815Z,4.82
2022-08-25T16:00:17.087Z,4.97
2022-08-25T16:02:45.459Z,4.88
2022-08-25T16:05:13.816Z,5.07
2022-08-25T16:07:43.168Z,4.70
2022-08-25T16:10:12.560Z,4.97
2022-08-25T16:12:40.154Z,5.03
2022-08-25T16:15:09.556Z,4.65
2022-08-25T16:17:38.575Z,5.78
2022-08-25T16:20:07.479Z,4.80
2022-08-25T16:22:40.648Z,5.10
2022-08-25T16:25:07.408Z,5.47
2022-08-25T16:27:38.871Z,4.80
2022-08-25T16:30:07.064Z,5.00
2022-08-25T16:32:33.452Z,4.10
2022-08-25T16:34:59.839Z,4.97
2022-08-25T16:37:26.278Z,5.35
2022-08-25T16:39:53.168Z,5.13
2022-08-25T16:42:19.933Z,5.22
2022-08-25T16:44:46.675Z,5.90
2022-08-25T16:47:14.584Z,5.55
2022-08-25T16:49:44.566Z,4.90
2022-08-25T16:52:29.860Z,5.18
2022-08-25T16:55:12.845Z,5.97
2022-08-25T16:57:41.424Z,5.60
2022-08-25T17:00:12.772Z,5.40
2022-08-25T17:02:39.485Z,5.60
2022-08-25T17:05:06.882Z,6.13
2022-08-25T17:07:33.493Z,5.78
2022-08-25T17:10:00.052Z,5.18
2022-08-25T17:12:26.684Z,6.68
2022-08-25T17:14:53.308Z,5.90
2022-08-25T17:17:20.066Z,5.47
2022-08-25T17:19:49.764Z,5.93
2022-08-25T17:22:19.591Z,6.53
2022-08-25T17:24:47.311Z,6.18
2022-08-25T17:27:26.853Z,6.30
2022-08-25T17:29:53.497Z,6.05
2022-08-25T17:32:19.955Z,5.68
2022-08-25T17:34:46.690Z,6.10
2022-08-25T17:37:13.208Z,5.65
2022-08-25T17:39:40.781Z,6.25
2022-08-25T17:42:07.224Z,6.03
2022-08-25T17:44:35.018Z,6.07
2022-08-25T17:47:04.037Z,5.93
2022-08-25T17:49:31.317Z,5.70
2022-08-25T17:51:58.216Z,6.25
2022-08-25T17:54:25.087Z,6.30
2022-08-25T17:56:51.523Z,6.70
2022-08-25T17:59:19.271Z,7.65
2022-08-25T18:01:46.289Z,6.00
2022-08-25T18:04:17.816Z,6.40
2022-08-25T18:06:47.652Z,5.60
2022-08-25T18:09:14.967Z,6.88
2022-08-25T18:11:42.084Z,6.78
2022-08-25T18:14:10.810Z,7.05
2022-08-25T18:16:37.595Z,7.43
2022-08-25T18:19:04.055Z,6.25
2022-08-25T18:21:36.155Z,8.20
2022-08-25T18:24:03.323Z,6.70
2022-08-25T18:26:29.862Z,7.03
2022-08-25T18:28:56.450Z,6.72
2022-08-25T18:31:22.910Z,6.40
2022-08-25T18:33:51.128Z,7.07
2022-08-25T18:36:20.447Z,7.40
2022-08-25T18:39:06.117Z,7.60
2022-08-25T18:41:33.627Z,7.22
2022-08-25T18:44:00.237Z,6.32
2022-08-25T18:46:26.877Z,7.35
2022-08-25T18:48:53.336Z,7.38
2022-08-25T18:51:23.300Z,6.57
2022-08-25T18:53:51.044Z,7.10
2022-08-25T18:56:18.769Z,8.77
2022-08-25T18:58:46.604Z,7.15
2022-08-25T19:01:14.360Z,7.72
2022-08-25T19:03:43.035Z,6.80
2022-08-25T19:06:09.879Z,8.20
2022-08-25T19:08:39.429Z,8.07
2022-08-25T19:11:08.609Z,8.43
2022-08-25T19:13:35.178Z,8.10
2022-08-25T19:16:11.679Z,8.55
2022-08-25T19:18:39.038Z,8.20
2022-08-25T19:21:06.063Z,8.45
2022-08-25T19:23:32.727Z,7.15
2022-08-25T19:26:00.144Z,7.38
2022-08-25T19:28:26.663Z,7.93
2022-08-25T19:30:53.142Z,7.35
2022-08-25T19:33:42.002Z,7.88
2022-08-25T19:36:08.799Z,7.72
2022-08-25T19:38:35.952Z,8.15
2022-08-25T19:41:02.635Z,8.15
2022-08-25T19:43:40.399Z,7.53
2022-08-25T19:46:23.166Z,7.53
2022-08-25T19:48:49.644Z,8.10
2022-08-25T19:51:17.091Z,7.80
2022-08-25T19:53:46.749Z,8.57
2022-08-25T19:56:20.077Z,7.80
2022-08-25T19:58:46.427Z,8.70
2022-08-25T20:01:13.997Z,7.78
2022-08-25T20:03:44.882Z,7.88
2022-08-25T20:06:11.270Z,8.27
2022-08-25T20:08:37.730Z,7.53
2022-08-25T20:11:04.534Z,7.40
2022-08-25T20:13:31.082Z,7.68
2022-08-25T20:15:58.796Z,8.23
2022-08-25T20:18:25.564Z,7.90
2022-08-25T20:20:52.595Z,8.40
2022-08-25T20:23:37.975Z,8.15
2022-08-25T20:26:05.362Z,7.93
2022-08-25T20:28:31.767Z,8.52
2022-08-25T20:30:59.591Z,7.93
2022-08-25T20:33:26.530Z,7.93
2022-08-25T20:35:53.316Z,8.40
2022-08-25T20:38:19.906Z,8.18
2022-08-25T20:40:46.402Z,8.60
2022-08-25T20:43:15.234Z,9.20
2022-08-25T20:45:41.696Z,8.05
2022-08-25T20:48:09.494Z,8.82
2022-08-25T20:50:37.995Z,8.40
2022-08-25T20:53:05.719Z,8.45
2022-08-25T20:55:42.332Z,8.60
2022-08-25T20:58:10.135Z,9.70
2022-08-25T21:00:36.630Z,8.80
2022-08-25T21:03:03.165Z,8.85
2022-08-25T21:05:29.610Z,9.07
2022-08-25T21:07:56.058Z,9.38
2022-08-25T21:10:23.755Z,9.57
2022-08-25T21:12:53.436Z,9.95
2022-08-25T21:15:20.110Z,9.75
2022-08-25T21:17:54.483Z,9.57
2022-08-25T21:20:24.078Z,9.45
2022-08-25T21:22:50.962Z,10.52
2022-08-25T21:25:17.822Z,9.40
2022-08-25T21:27:44.492Z,8.77
2022-08-25T21:30:14.648Z,8.63
2022-08-25T21:32:52.909Z,8.77
2022-08-25T21:35:20.434Z,9.60
2022-08-25T21:37:48.940Z,9.25
2022-08-25T21:40:20.942Z,9.05
2022-08-25T21:42:48.680Z,9.30
2022-08-25T21:45:15.405Z,9.10
2022-08-25T21:47:42.707Z,9.18
2022-08-25T21:50:12.703Z,9.75
2022-08-25T21:52:39.188Z,9.23
2022-08-25T21:55:07.816Z,9.25
2022-08-25T21:57:42.282Z,9.07
2022-08-25T22:00:10.804Z,9.05
2022-08-25T22:02:38.492Z,9.05
2022-08-25T22:05:05.236Z,9.98
2022-08-25T22:10:12.772Z,10.50
2022-08-25T22:12:43.525Z,10.25
2022-08-25T22:15:10.302Z,9.48
2022-08-25T22:17:40.443Z,9.40
2022-08-25T22:20:07.884Z,10.18
2022-08-25T22:22:34.302Z,10.60
2022-08-25T22:25:01.005Z,9.88
2022-08-25T22:27:27.760Z,10.88
2022-08-25T22:29:54.153Z,10.10
2022-08-25T22:32:20.515Z,10.20
2022-08-25T22:34:48.259Z,9.13
2022-08-25T22:37:17.793Z,10.95
2022-08-25T22:39:45.425Z,9.98
2022-08-25T22:42:12.283Z,10.00
2022-08-25T22:44:39.873Z,10.30
2022-08-25T22:47:06.860Z,10.00
2022-08-25T22:49:35.384Z,10.40
2022-08-25T22:52:02.325Z,10.13
2022-08-25T22:54:29.870Z,10.25
2022-08-25T22:56:56.424Z,9.65
2022-08-25T22:59:22.990Z,10.13
2022-08-25T23:01:49.633Z,9.52
2022-08-25T23:04:16.042Z,10.00
2022-08-25T23:06:44.214Z,10.65
2022-08-25T23:09:10.861Z,10.23
2022-08-25T23:11:38.641Z,10.38
2022-08-25T23:14:06.600Z,9.18
2022-08-25T23:16:33.173Z,10.38
2022-08-25T23:18:59.919Z,11.02
2022-08-25T23:21:45.311Z,9.90
2022-08-25T23:24:12.465Z,10.25
2022-08-25T23:26:42.564Z,9.85
2022-08-25T23:29:18.839Z,10.98
2022-08-25T23:31:46.373Z,9.98
2022-08-25T23:34:13.037Z,10.15
2022-08-25T23:36:39.664Z,9.88
2022-08-25T23:39:07.715Z,10.32
2022-08-25T23:41:35.483Z,9.73
2022-08-25T23:44:05.300Z,9.65
2022-08-25T23:46:32.775Z,9.75
2022-08-25T23:48:59.403Z,10.27
2022-08-25T23:51:27.804Z,9.68
2022-08-25T23:53:55.121Z,9.07
2022-08-25T23:56:21.955Z,10.32
2022-08-25T23:58:48.635Z,9.43
